TimeEDT,TemperatureF,Dew PointF,Humidity,Sea Level PressureIn,VisibilityMPH,Wind Direction,Wind SpeedMPH,Gust SpeedMPH,PrecipitationIn,Events,Conditions,WindDirDegrees,DateUTC
12:58 AM,81.0,77.0,88,30.12,10.0,SW,8.1,-,N/A,,Clear,230,2013-07-19 04:58:00
1:58 AM,81.0,77.0,88,30.12,10.0,SW,10.4,-,N/A,,Partly Cloudy,230,2013-07-19 05:58:00
2:58 AM,81.0,75.9,85,30.10,10.0,WSW,6.9,-,N/A,,Partly Cloudy,240,2013-07-19 06:58:00
3:58 AM,81.0,75.9,85,30.10,10.0,WSW,6.9,-,N/A,,Partly Cloudy,250,2013-07-19 07:58:00
4:58 AM,80.1,75.9,87,30.10,10.0,WSW,9.2,-,N/A,,Scattered Clouds,240,2013-07-19 08:58:00
5:05 AM,80.6,75.2,84,30.09,10.0,WSW,8.1,-,N/A,,Mostly Cloudy,240,2013-07-19 09:05:00
5:13 AM,80.6,75.2,84,30.10,10.0,SW,9.2,-,N/A,,Scattered Clouds,230,2013-07-19 09:13:00
5:58 AM,80.1,75.0,85,30.10,10.0,WSW,10.4,-,N/A,,Clear,240,2013-07-19 09:58:00
6:58 AM,80.1,75.9,87,30.12,10.0,SW,11.5,-,N/A,,Partly Cloudy,230,2013-07-19 10:58:00
7:58 AM,82.0,75.9,82,30.13,10.0,WSW,9.2,-,N/A,,Scattered Clouds,250,2013-07-19 11:58:00
8:58 AM,82.0,73.9,76,30.14,10.0,West,10.4,-,N/A,,Scattered Clouds,260,2013-07-19 12:58:00
9:58 AM,82.9,75.0,77,30.14,10.0,West,11.5,-,N/A,,Partly Cloudy,260,2013-07-19 13:58:00
10:58 AM,84.0,75.0,74,30.15,10.0,WSW,12.7,-,N/A,,Clear,240,2013-07-19 14:58:00
11:58 AM,84.9,77.0,77,30.14,10.0,SW,13.8,-,N/A,,Scattered Clouds,220,2013-07-19 15:58:00
12:58 PM,84.9,75.9,74,30.14,10.0,SW,15.0,-,N/A,,Partly Cloudy,220,2013-07-19 16:58:00
1:58 PM,84.9,77.0,77,30.12,10.0,SSW,17.3,23.0,N/A,,Partly Cloudy,210,2013-07-19 17:58:00
2:58 PM,84.9,77.0,77,30.10,10.0,SSW,18.4,-,N/A,,Partly Cloudy,210,2013-07-19 18:58:00
3:58 PM,84.9,75.9,74,30.08,10.0,SW,17.3,-,N/A,,Partly Cloudy,220,2013-07-19 19:58:00
4:58 PM,84.9,75.9,74,30.07,10.0,SSW,18.4,26.5,N/A,,Clear,210,2013-07-19 20:58:00
5:58 PM,84.0,75.0,74,30.05,10.0,SW,20.7,-,N/A,,Clear,220,2013-07-19 21:58:00
6:58 PM,82.9,73.9,74,30.05,10.0,SW,13.8,-,N/A,,Clear,230,2013-07-19 22:58:00
7:58 PM,81.0,75.0,82,30.05,10.0,SW,15.0,-,N/A,,Partly Cloudy,230,2013-07-19 23:58:00
8:58 PM,81.0,73.9,79,30.06,10.0,SW,13.8,-,N/A,,Clear,220,2013-07-20 00:58:00
9:58 PM,81.0,75.0,82,30.07,10.0,SW,15.0,-,N/A,,Clear,220,2013-07-20 01:58:00
10:58 PM,80.1,75.0,85,30.09,10.0,SW,16.1,21.9,N/A,,Clear,220,2013-07-20 02:58:00
11:58 PM,80.1,75.0,85,30.08,10.0,SW,18.4,24.2,N/A,,Clear,220,2013-07-20 03:58:00